Time;durP1;ratioP1;P1;durP2;ratioP2;P2;SDS_P1;SDS_P2;PMS_P1;PMS_P2;Temp;Humidity;BMP_temperature;BMP_pressure;BME280_temperature;BME280_humidity;BME280_pressure;Samples;Min_cycle;Max_cycle;Signal;HPM_P1;HPM_P2
2022/07/29 00:02:03;;;;;;;5.70;1.83;;;;;;;24.10;39.39;100355.13;4963229;28;20215;-62
2022/07/29 00:04:30;;;;;;;6.93;1.30;;;;;;;24.07;39.56;100356.41;4964771;28;20213;-61
2022/07/29 00:06:58;;;;;;;6.20;1.88;;;;;;;24.04;39.49;100356.88;4963230;28;20726;-62
2022/07/29 00:09:26;;;;;;;3.17;1.40;;;;;;;24.02;39.55;100353.59;4961888;28;20222;-62
2022/07/29 00:11:55;;;;;;;6.63;1.42;;;;;;;24.02;39.54;100342.75;4962098;28;20755;-62
2022/07/29 00:14:25;;;;;;;7.50;1.70;;;;;;;24.01;39.29;100349.25;4963839;28;20203;-62
2022/07/29 00:16:53;;;;;;;6.65;1.63;;;;;;;23.98;39.68;100345.13;4966302;28;20672;-61
2022/07/29 00:19:21;;;;;;;4.00;1.80;;;;;;;23.95;39.51;100340.19;4962330;28;20203;-61
2022/07/29 00:21:49;;;;;;;12.02;1.85;;;;;;;23.94;39.56;100335.00;4964225;28;20211;-62
2022/07/29 00:24:17;;;;;;;5.72;1.40;;;;;;;23.81;39.47;100340.69;4962931;28;20225;-62
2022/07/29 00:26:45;;;;;;;5.75;1.70;;;;;;;23.69;39.91;100342.56;4961795;28;20222;-63
2022/07/29 00:29:13;;;;;;;8.60;1.93;;;;;;;23.63;39.89;100333.53;4962217;28;20226;-63
2022/07/29 00:32:02;;;;;;;4.18;1.73;;;;;;;23.50;40.07;100329.16;4961806;28;21733;-62
2022/07/29 00:37:20;;;;;;;7.43;1.35;;;;;;;23.41;40.36;100318.91;4925601;28;20211;-62
2022/07/29 00:39:49;;;;;;;4.38;1.80;;;;;;;23.41;40.17;100318.91;4962984;28;20211;-61
2022/07/29 00:42:17;;;;;;;3.63;1.40;;;;;;;23.38;40.28;100320.22;4963384;28;20577;-62
2022/07/29 00:44:45;;;;;;;4.53;1.48;;;;;;;23.38;40.37;100319.41;4960934;28;20211;-61
2022/07/29 00:47:14;;;;;;;6.53;1.70;;;;;;;23.45;40.43;100318.22;4965209;28;20221;-62
2022/07/29 00:49:43;;;;;;;5.73;1.70;;;;;;;23.47;39.98;100312.56;4962428;28;20271;-62
2022/07/29 00:52:12;;;;;;;4.53;1.77;;;;;;;23.43;40.22;100312.22;4963955;28;20317;-61
2022/07/29 00:54:44;;;;;;;7.47;2.17;;;;;;;23.47;40.29;100310.69;4960948;28;20238;-61
2022/07/29 00:57:12;;;;;;;6.23;1.60;;;;;;;23.53;40.03;100303.53;4959001;28;20688;-64
2022/07/29 00:59:40;;;;;;;6.93;1.57;;;;;;;23.58;39.86;100301.75;4961631;28;20215;-61
2022/07/29 01:02:08;;;;;;;4.25;1.58;;;;;;;23.64;39.90;100297.28;4961117;28;20226;-61
2022/07/29 01:04:37;;;;;;;3.97;1.40;;;;;;;23.69;39.55;100293.84;4964891;28;20309;-63
2022/07/29 01:07:06;;;;;;;4.00;1.50;;;;;;;23.71;39.49;100297.16;4962221;28;20203;-61
2022/07/29 01:09:35;;;;;;;6.32;1.67;;;;;;;23.71;39.62;100303.38;4962829;28;20241;-62
2022/07/29 01:12:16;;;;;;;6.97;1.85;;;;;;;23.64;39.74;100300.00;4964860;28;20238;-62
2022/07/29 01:14:45;;;;;;;7.90;1.63;;;;;;;23.52;39.67;100297.28;4963841;28;20207;-62
2022/07/29 01:17:18;;;;;;;4.10;1.33;;;;;;;23.46;39.86;100295.50;4963742;28;20225;-61
2022/07/29 01:19:53;;;;;;;3.95;1.17;;;;;;;23.45;40.11;100285.75;4964994;28;20210;-60
2022/07/29 01:22:36;;;;;;;7.57;1.88;;;;;;;23.47;40.06;100286.34;4964674;28;20345;-60
2022/07/29 01:25:18;;;;;;;6.28;1.63;;;;;;;23.46;40.21;100283.88;4963250;28;20226;-61
2022/07/29 01:28:01;;;;;;;6.55;1.73;;;;;;;23.50;40.38;100291.28;4965542;28;20213;-60
2022/07/29 01:30:33;;;;;;;5.00;1.77;;;;;;;23.53;40.13;100288.13;4964985;28;20234;-61
2022/07/29 01:33:03;;;;;;;6.40;1.77;;;;;;;23.56;40.34;100284.13;4965757;28;20199;-59
2022/07/29 01:35:36;;;;;;;4.38;1.98;;;;;;;23.59;40.41;100278.22;4966432;28;20206;-60
2022/07/29 01:38:10;;;;;;;6.40;2.50;;;;;;;23.59;40.41;100283.63;4966797;28;20211;-60
2022/07/29 01:40:44;;;;;;;7.82;2.33;;;;;;;23.58;40.16;100279.28;4963835;28;20671;-61
2022/07/29 01:43:17;;;;;;;5.93;1.70;;;;;;;23.55;40.26;100268.94;4968550;28;20202;-62
2022/07/29 01:45:57;;;;;;;5.03;2.07;;;;;;;23.54;40.21;100261.88;4965848;28;20210;-61
2022/07/29 01:48:32;;;;;;;7.30;2.13;;;;;;;23.47;40.52;100264.69;4962762;28;20199;-61
2022/07/29 01:51:06;;;;;;;10.63;2.60;;;;;;;23.39;40.68;100262.34;4961423;28;20237;-60
2022/07/29 01:53:38;;;;;;;6.53;1.60;;;;;;;23.33;40.60;100263.28;4965236;28;20575;-61
2022/07/29 01:56:09;;;;;;;7.03;1.70;;;;;;;23.29;40.93;100259.41;4964114;28;20210;-61
2022/07/29 01:58:41;;;;;;;4.43;1.80;;;;;;;23.32;40.80;100261.63;4964538;28;20235;-61
2022/07/29 02:01:13;;;;;;;4.45;1.90;;;;;;;23.28;40.88;100263.16;4966275;28;20218;-62
2022/07/29 02:03:45;;;;;;;7.10;2.22;;;;;;;23.31;40.82;100264.59;4966147;28;20211;-61
2022/07/29 02:06:18;;;;;;;5.50;2.08;;;;;;;23.35;40.47;100266.56;4963742;28;20206;-61
2022/07/29 02:08:47;;;;;;;10.25;2.25;;;;;;;23.37;40.76;100269.88;4963071;28;20206;-61
2022/07/29 02:11:16;;;;;;;8.67;2.13;;;;;;;23.26;40.89;100263.41;4962735;28;20342;-62
2022/07/29 02:13:45;;;;;;;6.07;1.90;;;;;;;23.27;40.92;100258.81;4965677;28;20221;-62
2022/07/29 02:16:16;;;;;;;4.97;2.25;;;;;;;23.31;40.71;100264.59;4964549;28;20222;-62
2022/07/29 02:18:46;;;;;;;5.43;1.97;;;;;;;23.33;40.92;100260.56;4964834;28;20222;-61
2022/07/29 02:21:19;;;;;;;7.55;2.25;;;;;;;23.36;40.90;100262.81;4964091;28;20214;-63
2022/07/29 02:23:48;;;;;;;6.13;2.30;;;;;;;23.35;40.82;100261.16;4964380;28;20221;-62
2022/07/29 02:26:20;;;;;;;4.33;1.93;;;;;;;23.35;40.78;100263.88;4963747;28;20744;-61
2022/07/29 02:28:49;;;;;;;18.30;2.42;;;;;;;23.34;40.99;100270.34;4965577;28;20221;-63
2022/07/29 02:31:22;;;;;;;4.90;1.87;;;;;;;23.32;40.86;100267.03;4963849;28;20223;-62
2022/07/29 02:33:52;;;;;;;4.90;1.77;;;;;;;23.30;40.98;100263.75;4965501;28;20207;-62
2022/07/29 02:36:23;;;;;;;10.00;2.20;;;;;;;23.28;40.96;100265.88;4965923;28;20210;-62
2022/07/29 02:38:51;;;;;;;6.45;1.80;;;;;;;23.29;40.89;100264.81;4963602;28;20541;-62
2022/07/29 02:41:23;;;;;;;6.63;1.63;;;;;;;23.27;41.25;100264.22;4965096;28;20215;-61
2022/07/29 02:43:56;;;;;;;3.90;1.92;;;;;;;23.17;41.33;100269.41;4964715;28;20214;-61
2022/07/29 02:46:32;;;;;;;6.40;1.80;;;;;;;23.09;41.68;100269.75;4962806;28;20203;-61
2022/07/29 02:49:05;;;;;;;8.00;2.20;;;;;;;23.09;41.42;100267.03;4965161;28;20621;-62
2022/07/29 02:51:44;;;;;;;3.43;1.83;;;;;;;23.09;41.71;100261.63;4964127;28;20245;-62
2022/07/29 02:54:20;;;;;;;5.07;1.63;;;;;;;23.11;41.74;100259.53;4963894;28;20301;-62
2022/07/29 02:56:52;;;;;;;4.33;1.53;;;;;;;23.12;41.29;100256.59;4962740;28;20664;-62
2022/07/29 02:59:25;;;;;;;5.20;1.70;;;;;;;23.11;41.48;100256.81;4964762;28;20215;-63
2022/07/29 03:01:56;;;;;;;6.93;1.80;;;;;;;23.13;41.30;100262.84;4965957;28;20265;-60
2022/07/29 03:04:26;;;;;;;3.73;2.10;;;;;;;23.08;41.29;100257.28;4966907;28;20286;-61
2022/07/29 03:06:54;;;;;;;7.63;2.07;;;;;;;23.06;41.69;100256.69;4962522;28;20211;-63
2022/07/29 03:09:24;;;;;;;15.30;2.43;;;;;;;23.03;41.83;100257.19;4963166;28;20207;-61
2022/07/29 03:11:54;;;;;;;7.20;1.80;;;;;;;22.97;42.04;100248.09;4964162;28;20244;-60
2022/07/29 03:14:22;;;;;;;12.20;2.10;;;;;;;22.96;41.86;100256.44;4962610;28;20207;-61
2022/07/29 03:16:51;;;;;;;6.50;2.07;;;;;;;22.93;42.21;100251.53;4961454;28;20249;-61
2022/07/29 03:19:21;;;;;;;9.97;2.43;;;;;;;22.87;42.23;100258.66;4963484;28;20304;-61
2022/07/29 03:21:49;;;;;;;7.60;2.10;;;;;;;22.74;42.46;100254.31;4962214;28;20221;-61
2022/07/29 03:24:27;;;;;;;4.83;1.67;;;;;;;22.74;42.58;100254.31;4961773;28;20215;-61
2022/07/29 03:26:56;;;;;;;9.20;1.97;;;;;;;22.77;42.62;100253.03;4961075;28;20215;-61
2022/07/29 03:29:24;;;;;;;11.27;2.53;;;;;;;22.74;42.41;100253.47;4960744;28;20214;-61
2022/07/29 03:32:00;;;;;;;6.73;2.33;;;;;;;22.74;42.54;100257.03;4963674;28;20313;-61
2022/07/29 03:34:31;;;;;;;7.80;1.93;;;;;;;22.74;42.61;100265.13;4965722;28;20480;-62
2022/07/29 03:36:59;;;;;;;5.23;2.30;;;;;;;22.76;42.24;100254.09;4960115;28;20221;-60
2022/07/29 03:39:32;;;;;;;8.70;2.23;;;;;;;22.81;42.62;100259.63;4962394;28;20226;-59
2022/07/29 03:42:01;;;;;;;7.83;2.30;;;;;;;22.79;42.50;100256.31;4963343;28;20229;-62
2022/07/29 03:44:31;;;;;;;8.70;1.80;;;;;;;22.80;42.59;100257.97;4961255;28;20218;-61
2022/07/29 03:47:01;;;;;;;5.13;2.00;;;;;;;22.77;42.47;100258.44;4961696;28;20675;-62
2022/07/29 03:49:33;;;;;;;6.27;2.80;;;;;;;22.74;42.54;100257.03;4962662;28;20211;-62
2022/07/29 03:52:01;;;;;;;5.67;2.57;;;;;;;22.68;42.59;100266.03;4963171;28;20612;-61
2022/07/29 03:54:29;;;;;;;8.43;2.23;;;;;;;22.71;42.59;100265.56;4963123;28;20652;-60
2022/07/29 03:57:00;;;;;;;5.67;2.40;;;;;;;22.73;42.36;100255.34;4964817;28;20214;-59
2022/07/29 03:59:28;;;;;;;6.50;2.13;;;;;;;22.73;42.34;100259.94;4968160;28;20207;-61
2022/07/29 04:01:57;;;;;;;7.10;2.30;;;;;;;22.66;42.62;100260.03;4962032;28;20229;-60
2022/07/29 04:04:26;;;;;;;9.57;2.47;;;;;;;22.66;42.52;100262.75;4963801;28;20301;-61
2022/07/29 04:06:56;;;;;;;5.87;2.00;;;;;;;22.68;42.43;100254.41;4961772;28;20274;-61
2022/07/29 04:09:24;;;;;;;4.63;2.20;;;;;;;22.65;42.67;100265.66;4961471;28;20206;-61
2022/07/29 04:11:52;;;;;;;6.90;2.10;;;;;;;22.60;42.72;100269.09;4962726;28;20253;-61
2022/07/29 04:14:31;;;;;;;10.43;2.30;;;;;;;22.60;42.51;100273.66;4964389;28;20206;-61
2022/07/29 04:16:59;;;;;;;5.33;2.10;;;;;;;22.58;42.31;100271.19;4960997;28;20215;-61
2022/07/29 04:19:27;;;;;;;4.20;2.10;;;;;;;22.56;42.10;100267.88;4960191;28;20207;-61
2022/07/29 04:21:56;;;;;;;12.57;3.10;;;;;;;22.57;42.35;100271.41;4960758;28;20223;-62
2022/07/29 04:24:24;;;;;;;11.13;2.60;;;;;;;22.55;42.42;100277.03;4962287;28;20215;-61
2022/07/29 04:26:52;;;;;;;4.60;1.93;;;;;;;22.55;42.46;100273.50;4958646;28;20210;-61
2022/07/29 04:29:20;;;;;;;6.20;1.90;;;;;;;22.56;42.29;100275.16;4964652;28;20215;-61
2022/07/29 04:31:48;;;;;;;5.63;2.10;;;;;;;22.53;42.06;100279.13;4963584;28;20226;-61
2022/07/29 04:34:16;;;;;;;9.27;2.27;;;;;;;22.50;42.16;100275.03;4959962;28;20587;-61
2022/07/29 04:36:44;;;;;;;5.57;2.43;;;;;;;22.49;42.61;100269.88;4961523;28;20562;-62
2022/07/29 04:39:13;;;;;;;7.43;2.30;;;;;;;22.45;42.53;100268.66;4961358;28;20322;-61
2022/07/29 04:41:49;;;;;;;6.97;2.30;;;;;;;22.44;42.43;100278.66;4962150;28;20230;-61
2022/07/29 04:44:19;;;;;;;7.67;2.43;;;;;;;22.43;42.57;100273.47;4961731;28;20696;-61
2022/07/29 04:46:47;;;;;;;12.00;2.93;;;;;;;22.40;42.70;100279.34;4965213;28;20222;-61
2022/07/29 04:49:14;;;;;;;8.37;2.70;;;;;;;22.41;42.93;100275.59;4965051;28;20269;-61
2022/07/29 04:51:42;;;;;;;9.67;4.20;;;;;;;22.46;42.88;100273.00;4966340;28;20230;-61
2022/07/29 04:54:10;;;;;;;21.93;5.73;;;;;;;22.49;42.93;100281.50;4970815;28;20930;-61
2022/07/29 04:56:39;;;;;;;13.37;6.20;;;;;;;22.49;42.88;100272.56;4967909;28;20218;-61
2022/07/29 04:59:07;;;;;;;15.50;8.13;;;;;;;22.45;42.70;100279.47;4964004;28;20241;-61
2022/07/29 05:01:35;;;;;;;19.27;9.13;;;;;;;22.45;42.97;100274.91;4966893;28;20214;-62
2022/07/29 05:04:03;;;;;;;15.53;8.87;;;;;;;22.46;43.07;100276.53;4966579;28;20211;-60
2022/07/29 05:06:30;;;;;;;18.33;9.97;;;;;;;22.48;42.65;100287.13;4963858;28;20226;-61
2022/07/29 05:08:59;;;;;;;21.97;10.37;;;;;;;22.50;42.79;100279.63;4968220;28;20572;-62
2022/07/29 05:11:26;;;;;;;21.10;11.50;;;;;;;22.51;43.03;100284.81;4969819;28;20727;-63
2022/07/29 05:13:58;;;;;;;24.33;11.50;;;;;;;22.53;43.01;100284.53;4968805;28;20215;-61
2022/07/29 05:16:27;;;;;;;19.50;9.90;;;;;;;22.55;42.96;100282.44;4968891;28;20219;-59
2022/07/29 05:18:54;;;;;;;17.27;9.60;;;;;;;22.66;42.77;100281.66;4968853;28;20202;-59
2022/07/29 05:21:22;;;;;;;21.00;9.00;;;;;;;22.69;42.44;100288.50;4965902;28;20207;-61
2022/07/29 05:23:50;;;;;;;15.60;8.43;;;;;;;22.70;42.26;100290.94;4967549;28;20217;-60
2022/07/29 05:26:18;;;;;;;17.53;7.27;;;;;;;22.73;42.58;100286.94;4969525;28;20206;-61
2022/07/29 05:28:45;;;;;;;15.77;7.13;;;;;;;22.72;42.38;100288.84;4968403;28;20202;-62
2022/07/29 05:31:15;;;;;;;13.80;5.97;;;;;;;22.76;42.58;100289.22;4968444;28;20230;-62
2022/07/29 05:33:43;;;;;;;11.77;4.93;;;;;;;22.77;42.60;100289.00;4972853;28;20676;-61
2022/07/29 05:36:11;;;;;;;9.13;3.60;;;;;;;22.79;42.39;100292.28;4972522;28;20226;-62
2022/07/29 05:38:39;;;;;;;9.40;2.90;;;;;;;22.83;42.70;100298.88;4972587;28;20249;-62
2022/07/29 05:41:07;;;;;;;10.90;3.20;;;;;;;22.87;42.68;100294.63;4970880;28;20237;-61
2022/07/29 05:43:35;;;;;;;10.23;3.00;;;;;;;22.91;42.51;100296.88;4970169;28;20207;-62
2022/07/29 05:46:02;;;;;;;6.33;2.57;;;;;;;22.92;42.40;100293.97;4969718;28;20349;-60
2022/07/29 05:48:32;;;;;;;15.23;2.70;;;;;;;22.95;42.38;100303.50;4966409;28;20207;-63
2022/07/29 05:51:00;;;;;;;7.33;2.50;;;;;;;22.98;42.36;100298.44;4965324;28;20238;-60
2022/07/29 05:53:28;;;;;;;8.17;3.17;;;;;;;22.96;42.41;100305.13;4970437;28;20214;-60
2022/07/29 05:55:56;;;;;;;11.97;3.20;;;;;;;23.02;42.28;100304.19;4965120;28;20911;-61
2022/07/29 05:58:24;;;;;;;8.57;3.10;;;;;;;23.05;42.42;100311.81;4967252;28;20203;-60
2022/07/29 06:00:52;;;;;;;8.07;2.57;;;;;;;23.08;42.20;100303.25;4966927;28;20206;-61
2022/07/29 06:03:20;;;;;;;10.27;3.17;;;;;;;23.09;42.17;100303.03;4973066;28;20198;-61
2022/07/29 06:05:49;;;;;;;7.73;2.20;;;;;;;23.15;42.17;100309.38;4972942;28;20302;-60
2022/07/29 06:08:17;;;;;;;7.63;3.30;;;;;;;23.16;41.99;100319.13;4970613;28;20652;-61
2022/07/29 06:10:45;;;;;;;7.97;3.10;;;;;;;23.19;42.00;100311.38;4970933;28;20265;-61
2022/07/29 06:13:15;;;;;;;17.80;2.77;;;;;;;23.23;42.19;100322.53;4972913;28;20215;-61
2022/07/29 06:15:43;;;;;;;17.73;3.00;;;;;;;23.27;42.04;100324.56;4969034;28;20214;-59
2022/07/29 06:18:13;;;;;;;32.87;4.87;;;;;;;23.34;41.93;100320.91;4968458;28;20203;-60
2022/07/29 06:20:40;;;;;;;15.75;3.72;;;;;;;23.39;42.38;100316.47;4968894;28;20309;-58
2022/07/29 06:23:10;;;;;;;8.80;3.20;;;;;;;23.53;42.08;100317.88;4972449;28;20207;-58
2022/07/29 06:25:39;;;;;;;11.50;3.50;;;;;;;23.70;41.47;100322.56;4971572;28;20602;-59
2022/07/29 06:28:07;;;;;;;7.35;3.03;;;;;;;23.83;41.08;100319.63;4971623;28;20213;-60
2022/07/29 06:30:34;;;;;;;11.07;2.72;;;;;;;23.94;40.86;100318.75;4971942;28;20211;-60
2022/07/29 06:33:02;;;;;;;7.93;2.88;;;;;;;23.97;41.32;100316.41;4970332;28;20652;-60
2022/07/29 06:35:30;;;;;;;12.95;2.80;;;;;;;23.98;41.48;100314.53;4966165;28;20253;-62
2022/07/29 06:38:11;;;;;;;8.45;2.72;;;;;;;23.92;41.83;100323.59;4964695;28;20202;-62
2022/07/29 06:41:02;;;;;;;10.05;3.17;;;;;;;23.87;42.25;100323.47;4963079;28;20214;-62
2022/07/29 06:43:33;;;;;;;12.55;3.28;;;;;;;23.85;42.62;100325.59;4966837;28;20203;-65
2022/07/29 06:46:03;;;;;;;9.57;2.47;;;;;;;23.84;42.37;100321.25;4971239;28;20234;-64
2022/07/29 06:48:31;;;;;;;10.85;3.33;;;;;;;23.86;42.30;100335.38;4970629;28;20217;-64
2022/07/29 06:50:59;;;;;;;7.60;2.90;;;;;;;23.87;42.38;100318.91;4969645;28;20234;-64
2022/07/29 06:53:29;;;;;;;12.38;4.03;;;;;;;23.90;42.33;100326.56;4971699;28;20253;-63
2022/07/29 06:55:57;;;;;;;10.05;2.90;;;;;;;23.93;41.92;100325.22;4971546;28;20207;-64
2022/07/29 06:58:25;;;;;;;11.00;2.83;;;;;;;;;;4970012;28;20207;-64
2022/07/29 07:00:53;;;;;;;6.55;2.58;;;;;;;23.94;42.06;100325.00;4967414;28;20203;-66
2022/07/29 07:03:21;;;;;;;6.95;2.78;;;;;;;23.93;42.16;100338.78;4965015;28;21483;-66
2022/07/29 07:05:49;;;;;;;9.45;2.80;;;;;;;23.92;42.30;100348.78;4965935;28;20702;-66
2022/07/29 07:08:17;;;;;;;11.80;3.35;;;;;;;23.92;42.34;100350.69;4961904;28;20367;-66
2022/07/29 07:10:47;;;;;;;14.25;3.08;;;;;;;23.95;42.32;100355.59;4963574;28;20597;-65
2022/07/29 07:13:16;;;;;;;10.75;3.38;;;;;;;23.92;43.02;100356.09;4966545;28;20314;-66
2022/07/29 07:15:45;;;;;;;9.70;3.13;;;;;;;23.94;42.85;100362.91;4966218;28;20672;-66
2022/07/29 07:18:13;;;;;;;10.07;2.97;;;;;;;23.99;42.73;100362.22;4965116;28;20663;-63
2022/07/29 07:20:40;;;;;;;11.68;2.85;;;;;;;24.05;42.84;100358.53;4967449;28;20217;-66
2022/07/29 07:23:08;;;;;;;14.48;2.80;;;;;;;24.07;42.58;100361.84;4972698;28;20199;-66
2022/07/29 07:25:36;;;;;;;6.55;2.38;;;;;;;24.08;42.62;100358.06;4972050;28;20310;-67
2022/07/29 07:28:06;;;;;;;7.63;2.53;;;;;;;24.12;43.09;100363.81;4970464;28;20203;-66
2022/07/29 07:30:34;;;;;;;6.50;3.08;;;;;;;24.17;43.25;100364.75;4967524;28;20318;-65
2022/07/29 07:33:02;;;;;;;8.63;2.92;;;;;;;24.24;43.47;100362.75;4972073;28;20229;-66
2022/07/29 07:35:30;;;;;;;7.03;2.95;;;;;;;24.26;44.06;100366.06;4969723;28;20219;-66
2022/07/29 07:37:58;;;;;;;6.18;3.28;;;;;;;24.30;44.07;100363.69;4971373;28;20642;-65
2022/07/29 07:40:26;;;;;;;7.03;3.10;;;;;;;24.30;44.23;100366.38;4969082;28;20302;-65
2022/07/29 07:42:54;;;;;;;7.72;2.60;;;;;;;24.25;44.12;100355.47;4970238;28;20635;-65
2022/07/29 07:45:23;;;;;;;6.82;3.00;;;;;;;24.23;44.66;100349.44;4968704;28;20211;-64
2022/07/29 07:47:51;;;;;;;6.18;3.00;;;;;;;24.21;44.68;100362.41;4967184;28;20297;-65
2022/07/29 07:50:18;;;;;;;11.73;2.90;;;;;;;24.18;45.25;100357.47;4970063;28;20214;-65
2022/07/29 07:52:48;;;;;;;5.78;2.72;;;;;;;24.18;45.16;100355.56;4966120;28;20661;-65
2022/07/29 07:55:17;;;;;;;6.68;2.90;;;;;;;24.19;45.52;100354.47;4972069;28;20305;-66
2022/07/29 07:57:45;;;;;;;8.93;3.10;;;;;;;24.29;45.56;100359.31;4969141;28;20232;-67
2022/07/29 08:00:15;;;;;;;7.22;3.00;;;;;;;24.44;45.62;100351.50;4972115;28;20761;-65
2022/07/29 08:02:45;;;;;;;8.10;3.05;;;;;;;24.57;44.89;100350.38;4967067;28;20245;-66
2022/07/29 08:05:16;;;;;;;6.20;2.67;;;;;;;24.62;44.68;100355.91;4966220;28;20730;-66
2022/07/29 08:07:45;;;;;;;6.50;3.15;;;;;;;24.60;44.50;100356.16;4969317;28;20207;-67
2022/07/29 08:10:13;;;;;;;7.50;2.85;;;;;;;24.62;45.12;100355.91;4964991;28;20215;-66
2022/07/29 08:12:42;;;;;;;4.85;2.90;;;;;;;24.70;45.64;100344.69;4966830;28;20345;-65
2022/07/29 08:15:10;;;;;;;6.78;3.15;;;;;;;24.84;45.52;100353.31;4967224;28;20294;-66
2022/07/29 08:17:38;;;;;;;6.90;3.47;;;;;;;25.03;45.15;100349.34;4965268;28;20217;-66
2022/07/29 08:20:08;;;;;;;6.72;3.00;;;;;;;24.98;45.31;100352.78;4967136;28;20677;-66
2022/07/29 08:22:35;;;;;;;6.53;3.22;;;;;;;24.93;45.51;100360.84;4968935;28;20676;-66
2022/07/29 08:25:03;;;;;;;6.18;3.10;;;;;;;24.92;45.78;100361.06;4967146;28;20675;-66
2022/07/29 08:27:31;;;;;;;10.90;3.28;;;;;;;24.93;45.67;100366.25;4967566;28;20222;-65
2022/07/29 08:30:10;;;;;;;9.50;3.78;;;;;;;24.96;46.20;100360.34;4971299;28;20289;-66
2022/07/29 08:32:38;;;;;;;11.70;4.07;;;;;;;25.10;45.82;100361.66;4973263;28;20669;-65
2022/07/29 08:35:25;;;;;;;9.50;3.35;;;;;;;25.35;45.40;100360.44;4969973;28;20218;-65
2022/07/29 08:37:53;;;;;;;7.50;3.63;;;;;;;25.42;45.54;100361.91;4969958;28;20214;-66
2022/07/29 08:40:23;;;;;;;12.77;3.80;;;;;;;25.39;46.40;100365.13;4968958;28;20614;-65
2022/07/29 08:42:59;;;;;;;7.22;3.20;;;;;;;25.47;45.82;100366.59;4967559;28;20198;-66
2022/07/29 08:45:30;;;;;;;7.82;3.33;;;;;;;25.58;45.79;100359.44;4968952;28;20218;-65
2022/07/29 08:47:58;;;;;;;5.15;3.05;;;;;;;25.61;45.93;100367.09;4968914;28;20591;-65
2022/07/29 08:50:27;;;;;;;6.93;3.60;;;;;;;25.62;46.60;100369.56;4970341;28;20215;-64
2022/07/29 08:52:55;;;;;;;9.50;3.13;;;;;;;25.59;46.17;100370.09;4969295;28;20691;-64
2022/07/29 08:55:27;;;;;;;10.30;3.90;;;;;;;25.54;45.86;100372.69;4969608;28;20207;-65
2022/07/29 08:57:56;;;;;;;14.30;3.67;;;;;;;25.55;45.50;100371.59;4969161;28;20219;-65
2022/07/29 09:00:26;;;;;;;9.05;3.40;;;;;;;25.59;45.88;100377.38;4964970;28;20215;-65
2022/07/29 09:02:59;;;;;;;8.75;3.38;;;;;;;25.57;46.22;100365.94;4969528;28;20249;-66
2022/07/29 09:05:29;;;;;;;6.60;3.20;;;;;;;25.57;46.27;100368.66;4967506;28;20212;-66
2022/07/29 09:07:57;;;;;;;10.38;3.63;;;;;;;25.56;45.96;100367.00;4966315;28;20598;-65
2022/07/29 09:10:25;;;;;;;7.35;3.70;;;;;;;25.59;46.13;100369.22;4967671;28;20603;-65
2022/07/29 09:12:53;;;;;;;6.30;3.10;;;;;;;25.61;46.37;100365.22;4950918;28;20712;-66
2022/07/29 09:15:20;;;;;;;6.82;3.00;;;;;;;25.73;46.05;100373.25;4947463;28;20215;-66
2022/07/29 09:17:50;;;;;;;13.43;3.55;;;;;;;25.91;46.05;100366.72;4948218;28;20617;-66
2022/07/29 09:20:20;;;;;;;8.15;3.55;;;;;;;26.04;45.83;100366.34;4947702;28;20221;-64
2022/07/29 09:22:50;;;;;;;6.78;3.63;;;;;;;26.17;45.52;100369.50;4949605;28;20215;-66
2022/07/29 09:25:33;;;;;;;8.95;3.83;;;;;;;26.33;45.17;100358.84;4949527;28;20239;-68
2022/07/29 09:28:07;;;;;;;7.00;3.22;;;;;;;26.38;45.34;100362.47;4946442;28;20246;-67
2022/07/29 09:30:35;;;;;;;7.18;3.70;;;;;;;26.51;45.25;100358.50;4948188;28;20673;-66
2022/07/29 09:33:04;;;;;;;7.65;3.60;;;;;;;26.64;44.75;100360.03;4949491;28;20303;-65
2022/07/29 09:35:32;;;;;;;8.48;3.28;;;;;;;26.76;44.70;100358.75;4948756;28;20247;-65
2022/07/29 09:38:11;;;;;;;9.00;3.97;;;;;;;26.84;44.47;100358.28;4946016;28;20235;-65
2022/07/29 09:40:39;;;;;;;9.10;3.80;;;;;;;26.93;44.54;100358.69;4949223;28;20604;-65
2022/07/29 09:43:11;;;;;;;8.77;3.38;;;;;;;27.08;44.43;100358.00;4947136;28;20211;-65
2022/07/29 09:45:40;;;;;;;7.53;3.22;;;;;;;27.19;43.89;100357.81;4948594;28;20669;-65
2022/07/29 09:48:15;;;;;;;8.48;3.75;;;;;;;27.22;43.64;100351.03;4947521;28;20222;-65
2022/07/29 09:50:46;;;;;;;11.65;3.95;;;;;;;27.28;44.10;100356.25;4949763;28;20239;-67
2022/07/29 09:53:32;;;;;;;9.25;4.07;;;;;;;27.36;43.49;100352.22;4948048;28;20671;-65
2022/07/29 09:56:00;;;;;;;6.40;3.45;;;;;;;27.41;43.35;100355.00;4946900;28;20199;-66
2022/07/29 09:58:27;;;;;;;6.00;3.42;;;;;;;27.41;43.58;100346.00;4947660;28;20216;-66
2022/07/29 10:00:57;;;;;;;8.77;3.97;;;;;;;27.39;43.67;100357.16;4949053;28;20439;-66
2022/07/29 10:03:26;;;;;;;8.00;3.38;;;;;;;27.37;43.62;100353.03;4947299;28;20728;-66
2022/07/29 10:06:08;;;;;;;5.35;3.13;;;;;;;27.43;43.78;100349.28;4949151;28;20222;-65
2022/07/29 10:08:38;;;;;;;10.65;3.67;;;;;;;27.55;43.04;100348.03;4949986;28;20341;-66
2022/07/29 10:11:13;;;;;;;10.10;3.17;;;;;;;27.56;43.35;100344.22;4952223;28;20250;-67
2022/07/29 10:13:42;;;;;;;8.55;2.85;;;;;;;27.53;43.17;100344.72;4967348;28;20234;-66
2022/07/29 10:16:09;;;;;;;6.47;3.50;;;;;;;27.39;43.73;100351.72;4967453;28;20222;-66
2022/07/29 10:18:39;;;;;;;8.25;3.50;;;;;;;27.26;43.97;100353.00;4967149;28;20242;-66
2022/07/29 10:21:07;;;;;;;8.38;3.58;;;;;;;27.14;44.04;100355.06;4966134;28;20223;-65
2022/07/29 10:23:36;;;;;;;9.43;3.63;;;;;;;27.08;44.39;100353.41;4968370;28;20659;-64
2022/07/29 10:26:17;;;;;;;6.50;3.45;;;;;;;27.03;44.41;100347.88;4968252;28;20214;-64
2022/07/29 10:28:45;;;;;;;6.25;3.20;;;;;;;27.10;44.26;100343.03;4969213;28;20740;-65
2022/07/29 10:31:22;;;;;;;9.30;3.55;;;;;;;27.23;44.25;100342.63;4967384;28;20222;-63
2022/07/29 10:34:05;;;;;;;7.68;3.80;;;;;;;27.34;44.06;100328.00;4966812;28;20225;-63
2022/07/29 10:36:54;;;;;;;7.65;4.43;;;;;;;27.41;44.02;100333.22;4965072;28;20677;-63
2022/07/29 10:39:35;;;;;;;15.63;3.50;;;;;;;27.47;44.31;100332.16;4965970;28;20601;-63
2022/07/29 10:42:20;;;;;;;4.55;3.15;;;;;;;27.54;44.11;100332.78;4965924;28;20589;-64
2022/07/29 10:45:02;;;;;;;11.25;3.80;;;;;;;27.54;44.04;100332.78;4966938;28;20230;-65
2022/07/29 10:47:31;;;;;;;9.10;3.83;;;;;;;27.58;44.16;100333.91;4966298;28;20603;-65
2022/07/29 10:50:04;;;;;;;7.57;3.70;;;;;;;27.71;43.87;100333.41;4965475;28;20226;-65
2022/07/29 10:52:54;;;;;;;11.10;3.20;;;;;;;27.88;43.84;100337.88;4968142;28;20218;-65
2022/07/29 10:55:33;;;;;;;5.70;3.30;;;;;;;27.93;43.41;100335.16;4965645;28;20227;-65
2022/07/29 10:58:18;;;;;;;9.15;3.45;;;;;;;28.05;42.42;100331.16;4965964;28;20215;-64
2022/07/29 11:00:47;;;;;;;7.25;3.45;;;;;;;28.26;41.67;100328.50;4968100;28;20278;-64
2022/07/29 11:03:46;;;;;;;5.47;3.75;;;;;;;28.35;41.55;100326.91;4966302;28;20218;-65
2022/07/29 11:06:18;;;;;;;4.63;3.25;;;;;;;28.47;41.14;100327.50;4966186;28;20250;-64
2022/07/29 11:09:16;;;;;;;5.32;3.33;;;;;;;28.65;40.42;100321.53;4965001;28;20571;-64
2022/07/29 11:11:44;;;;;;;5.07;3.40;;;;;;;28.65;40.29;100315.25;4966898;28;20608;-65
2022/07/29 11:15:00;;;;;;;11.90;3.53;;;;;;;28.52;40.71;100311.13;4966590;28;20234;-65
2022/07/29 11:17:28;;;;;;;5.93;3.53;;;;;;;28.41;40.94;100304.00;4950945;28;20304;-65
2022/07/29 11:20:33;;;;;;;6.32;3.10;;;;;;;28.43;41.38;100307.28;4965159;28;20218;-65
2022/07/29 11:23:18;;;;;;;6.72;3.33;;;;;;;28.40;40.76;100305.94;4968858;28;20573;-65
2022/07/29 11:26:14;;;;;;;6.90;3.30;;;;;;;28.41;40.73;100309.47;4966133;28;20306;-62
2022/07/29 11:28:52;;;;;;;6.75;3.00;;;;;;;28.31;40.95;100310.28;4965207;28;20270;-62
2022/07/29 11:31:35;;;;;;;6.22;3.70;;;;;;;28.11;40.96;100307.44;4965532;28;20703;-64
2022/07/29 11:34:20;;;;;;;6.30;3.58;;;;;;;28.09;41.35;100310.44;4966166;28;20210;-66
2022/07/29 11:37:19;;;;;;;7.88;3.75;;;;;;;28.13;41.01;100307.19;4964169;28;20282;-66
2022/07/29 11:40:13;;;;;;;6.90;3.47;;;;;;;28.11;41.14;100314.81;4966259;28;20675;-64
2022/07/29 11:42:49;;;;;;;10.23;3.55;;;;;;;28.22;40.76;100316.53;4965847;28;20245;-64
2022/07/29 11:45:21;;;;;;;8.85;4.07;;;;;;;28.24;40.72;100309.69;4967956;28;20234;-63
2022/07/29 11:48:16;;;;;;;7.53;3.15;;;;;;;28.23;41.03;100310.81;4966552;28;20611;-63